createdAt,value
2019-03-29T00:03:36.809Z,103001.30
2019-03-29T00:07:43.464Z,103004.75
2019-03-29T00:11:50.105Z,103001.15
2019-03-29T00:15:56.840Z,102997.78
2019-03-29T00:20:06.177Z,102996.94
2019-03-29T00:24:12.091Z,102995.92
2019-03-29T00:28:18.733Z,102991.17
2019-03-29T00:32:25.391Z,102986.58
2019-03-29T00:36:32.275Z,102982.32
2019-03-29T00:40:38.898Z,102991.47
2019-03-29T00:44:45.819Z,102985.84
2019-03-29T00:48:52.515Z,102983.23
2019-03-29T00:52:59.602Z,102979.95
2019-03-29T00:57:06.243Z,102976.22
2019-03-29T01:01:12.928Z,102963.75
2019-03-29T01:05:20.222Z,102950.41
2019-03-29T01:09:28.245Z,102952.64
2019-03-29T01:13:34.921Z,102938.17
2019-03-29T01:17:41.929Z,102939.18
2019-03-29T01:21:48.966Z,102937.05
2019-03-29T01:25:55.701Z,102936.17
2019-03-29T01:30:02.297Z,102927.69
2019-03-29T01:34:08.920Z,102916.34
2019-03-29T01:38:21.608Z,102912.10
2019-03-29T01:42:24.319Z,102910.86
2019-03-29T01:46:30.981Z,102912.84
2019-03-29T01:50:37.708Z,102909.34
2019-03-29T01:54:44.329Z,102914.21
2019-03-29T01:58:51.224Z,102906.98
2019-03-29T02:02:57.829Z,102898.49
2019-03-29T02:07:04.805Z,102890.41
2019-03-29T02:11:11.485Z,102878.67
2019-03-29T02:15:18.289Z,102877.05
2019-03-29T02:19:24.930Z,102879.66
2019-03-29T02:23:31.581Z,102870.06
2019-03-29T02:27:39.969Z,102874.55
2019-03-29T02:31:46.623Z,102872.56
2019-03-29T02:35:53.197Z,102865.52
2019-03-29T02:39:59.856Z,102867.39
2019-03-29T02:44:07.627Z,102868.29
2019-03-29T02:48:16.823Z,102871.88
2019-03-29T02:52:23.376Z,102871.61
2019-03-29T02:56:30.056Z,102874.75
2019-03-29T03:00:36.678Z,102879.35
2019-03-29T03:04:43.335Z,102874.86
2019-03-29T03:08:50.065Z,102874.47
2019-03-29T03:12:56.758Z,102871.08
2019-03-29T03:17:03.969Z,102869.50
2019-03-29T03:21:10.565Z,102862.62
2019-03-29T03:25:17.435Z,102865.84
2019-03-29T03:29:24.336Z,102869.59
2019-03-29T03:33:30.998Z,102870.30
2019-03-29T03:37:37.667Z,102868.06
2019-03-29T03:41:44.302Z,102866.19
2019-03-29T03:45:51.533Z,102870.81
2019-03-29T03:50:00.831Z,102871.01
2019-03-29T03:54:06.920Z,102878.02
2019-03-29T03:58:15.461Z,102875.23
2019-03-29T04:02:22.171Z,102881.34
2019-03-29T04:06:28.774Z,102880.95
2019-03-29T04:10:35.710Z,102885.72
2019-03-29T04:14:42.359Z,102887.33
2019-03-29T04:18:49.469Z,102887.21
2019-03-29T04:22:56.122Z,102879.50
2019-03-29T04:27:02.955Z,102879.73
2019-03-29T04:31:09.614Z,102870.77
2019-03-29T04:35:16.982Z,102875.19
2019-03-29T04:39:24.037Z,102860.70
2019-03-29T04:43:30.666Z,102862.82
2019-03-29T04:47:38.197Z,102861.95
2019-03-29T04:51:44.890Z,102867.59
2019-03-29T04:55:51.537Z,102869.42
2019-03-29T04:59:58.261Z,102869.38
2019-03-29T05:04:04.865Z,102864.41
2019-03-29T05:08:11.692Z,102861.39
2019-03-29T05:12:19.281Z,102858.53
2019-03-29T05:16:25.954Z,102857.44
2019-03-29T05:20:32.803Z,102854.81
2019-03-29T05:24:42.444Z,102859.79
2019-03-29T05:28:49.348Z,102852.59
2019-03-29T05:32:56.208Z,102854.94
2019-03-29T05:37:03.417Z,102852.77
2019-03-29T05:41:10.628Z,102854.02
2019-03-29T05:45:18.545Z,102851.79
2019-03-29T05:49:25.428Z,102852.42
2019-03-29T05:53:32.072Z,102853.63
2019-03-29T05:57:39.071Z,102854.48
2019-03-29T06:01:45.913Z,102853.62
2019-03-29T06:05:52.593Z,102857.45
2019-03-29T06:10:01.861Z,102850.65
2019-03-29T06:14:09.005Z,102856.52
2019-03-29T06:18:16.133Z,102851.83
2019-03-29T06:22:23.297Z,102856.09
2019-03-29T06:26:29.944Z,102848.14
2019-03-29T06:30:36.697Z,102851.39
2019-03-29T06:34:43.563Z,102847.17
2019-03-29T06:38:52.117Z,102842.86
2019-03-29T06:43:57.102Z,102845.52
2019-03-29T06:48:03.734Z,102836.14
2019-03-29T06:52:10.400Z,102838.14
2019-03-29T06:56:17.025Z,102848.59
2019-03-29T07:00:24.062Z,102843.42
2019-03-29T07:04:31.078Z,102841.89
2019-03-29T07:08:37.831Z,102839.59
2019-03-29T07:12:44.661Z,102838.45
2019-03-29T07:16:51.424Z,102838.92
2019-03-29T07:20:58.526Z,102834.88
2019-03-29T07:25:06.027Z,102840.16
2019-03-29T07:29:13.550Z,102832.50
2019-03-29T07:33:20.587Z,102833.89
2019-03-29T07:37:27.409Z,102830.99
2019-03-29T07:41:34.955Z,102834.69
2019-03-29T07:45:42.438Z,102843.39
2019-03-29T07:49:49.220Z,102837.69
2019-03-29T07:53:55.856Z,102840.10
2019-03-29T07:58:03.489Z,102843.06
2019-03-29T08:02:10.328Z,102843.52
2019-03-29T08:06:16.945Z,102844.06
2019-03-29T08:10:29.169Z,102837.69
2019-03-29T08:14:33.069Z,102840.37
2019-03-29T08:18:39.893Z,102845.84
2019-03-29T08:22:46.570Z,102840.83
2019-03-29T08:26:53.628Z,102840.46
2019-03-29T08:31:00.871Z,102834.91
2019-03-29T08:35:08.012Z,102832.55
2019-03-29T08:39:27.224Z,102832.73
2019-03-29T08:43:23.525Z,102826.52
2019-03-29T08:47:30.608Z,102827.27
2019-03-29T08:51:37.691Z,102815.53
2019-03-29T08:55:46.172Z,102821.14
2019-03-29T08:59:52.961Z,102818.98
2019-03-29T09:04:05.226Z,102809.58
2019-03-29T09:08:08.668Z,102806.28
2019-03-29T09:12:19.757Z,102799.41
2019-03-29T09:16:26.985Z,102800.36
2019-03-29T09:20:34.656Z,102802.31
2019-03-29T09:24:41.857Z,102791.48
2019-03-29T09:28:48.719Z,102790.78
2019-03-29T09:32:55.517Z,102787.23
2019-03-29T09:37:10.895Z,102777.76
2019-03-29T09:41:17.944Z,102775.56
2019-03-29T09:45:24.596Z,102774.19
2019-03-29T09:49:31.252Z,102765.03
2019-03-29T09:53:40.986Z,102764.88
2019-03-29T09:57:46.661Z,102760.55
2019-03-29T10:01:54.226Z,102753.30
2019-03-29T10:06:01.112Z,102752.94
2019-03-29T10:10:08.269Z,102743.72
2019-03-29T10:14:14.984Z,102741.33
2019-03-29T10:18:22.064Z,102734.55
2019-03-29T10:22:28.669Z,102729.87
2019-03-29T10:26:36.926Z,102719.98
2019-03-29T10:30:47.260Z,102716.48
2019-03-29T10:34:54.086Z,102714.79
2019-03-29T10:39:00.745Z,102703.98
2019-03-29T10:43:10.910Z,102688.84
2019-03-29T10:47:17.980Z,102688.69
2019-03-29T10:51:24.625Z,102679.83
2019-03-29T10:55:31.449Z,102675.09
2019-03-29T10:59:38.184Z,102672.28
2019-03-29T11:03:44.904Z,102670.13
2019-03-29T11:07:52.038Z,102658.39
2019-03-29T11:11:58.772Z,102652.08
2019-03-29T11:16:05.998Z,102645.14
2019-03-29T11:20:12.659Z,102642.23
2019-03-29T11:24:20.176Z,102636.92
2019-03-29T11:28:27.110Z,102630.83
2019-03-29T11:32:34.220Z,102628.64
2019-03-29T11:36:40.886Z,102624.30
2019-03-29T11:40:47.696Z,102619.93
2019-03-29T11:44:54.339Z,102608.39
2019-03-29T11:49:01.236Z,102606.64
2019-03-29T11:53:07.918Z,102605.84
2019-03-29T11:57:14.831Z,102605.00
2019-03-29T12:01:21.568Z,102594.53
2019-03-29T12:05:28.236Z,102588.31
2019-03-29T12:09:35.146Z,102582.09
2019-03-29T12:13:42.052Z,102579.33
2019-03-29T12:17:48.791Z,102560.68
2019-03-29T12:21:55.917Z,102563.66
2019-03-29T12:26:02.967Z,102558.37
2019-03-29T12:30:23.675Z,102557.90
2019-03-29T12:34:21.368Z,102553.88
2019-03-29T12:38:28.178Z,102542.19
2019-03-29T12:42:34.916Z,102532.77
2019-03-29T12:46:46.881Z,102530.77
2019-03-29T12:50:53.746Z,102526.94
2019-03-29T12:55:00.371Z,102514.49
2019-03-29T12:59:07.185Z,102510.78
2019-03-29T13:03:13.869Z,102503.67
2019-03-29T13:07:20.693Z,102499.45
2019-03-29T13:11:27.770Z,102486.62
2019-03-29T13:15:34.578Z,102476.34
2019-03-29T13:19:47.783Z,102471.69
2019-03-29T13:23:54.748Z,102466.91
2019-03-29T13:28:01.577Z,102456.05
2019-03-29T13:32:08.785Z,102442.73
2019-03-29T13:36:15.974Z,102439.00
2019-03-29T13:40:23.053Z,102431.15
2019-03-29T13:44:46.572Z,102418.81
2019-03-29T13:48:53.386Z,102413.84
2019-03-29T13:53:00.512Z,102407.11
2019-03-29T13:57:07.282Z,102407.75
2019-03-29T14:01:14.171Z,102405.63
2019-03-29T14:05:20.940Z,102390.94
2019-03-29T14:09:30.239Z,102382.58
2019-03-29T14:13:37.000Z,102366.63
2019-03-29T14:17:44.122Z,102364.09
2019-03-29T14:21:50.945Z,102357.39
2019-03-29T14:25:58.023Z,102354.91
2019-03-29T14:30:05.631Z,102351.17
2019-03-29T14:34:12.443Z,102335.87
2019-03-29T14:38:19.278Z,102332.20
2019-03-29T14:42:25.966Z,102322.69
2019-03-29T14:46:32.916Z,102320.20
2019-03-29T14:50:39.677Z,102321.59
2019-03-29T14:54:46.789Z,102310.97
2019-03-29T14:58:53.520Z,102305.14
2019-03-29T15:03:00.250Z,102306.77
2019-03-29T15:07:09.132Z,102295.13
2019-03-29T15:11:22.067Z,102283.45
2019-03-29T15:15:24.364Z,102284.41
2019-03-29T15:19:31.043Z,102285.79
2019-03-29T15:23:38.395Z,102280.36
2019-03-29T15:27:45.176Z,102259.15
2019-03-29T15:54:25.324Z,102232.72
2019-03-29T15:58:33.112Z,102231.36
2019-03-29T16:04:13.608Z,102222.47
2019-03-29T16:08:20.072Z,102233.95
2019-03-29T16:12:26.776Z,102225.66
2019-03-29T16:16:32.971Z,102214.53
2019-03-29T16:20:39.303Z,102213.53
2019-03-29T16:24:45.806Z,102204.85
2019-03-29T16:28:52.189Z,102198.09
2019-03-29T16:32:58.565Z,102197.08
2019-03-29T16:37:04.931Z,102199.48
2019-03-29T16:41:11.505Z,102188.77
2019-03-29T16:45:17.785Z,102185.02
2019-03-29T17:03:40.853Z,102167.11
2019-03-29T17:06:07.174Z,102177.21
2019-03-29T17:08:34.001Z,102163.13
2019-03-29T17:11:00.491Z,102168.84
2019-03-29T17:13:27.113Z,102163.80
2019-03-29T17:16:01.510Z,102165.82
2019-03-29T17:18:29.170Z,102158.84
2019-03-29T17:20:50.713Z,102169.95
2019-03-29T17:23:21.521Z,102169.84
2019-03-29T17:25:48.083Z,102174.80
2019-03-29T17:28:14.571Z,102165.34
2019-03-29T17:30:45.824Z,102170.77
2019-03-29T17:33:12.231Z,102163.01
2019-03-29T17:35:38.550Z,102166.27
2019-03-29T17:38:04.910Z,102163.59
2019-03-29T17:40:31.228Z,102162.08
2019-03-29T17:42:57.601Z,102167.70
2019-03-29T17:45:23.933Z,102165.33
2019-03-29T17:47:50.178Z,102164.44
2019-03-29T17:50:18.322Z,102156.77
2019-03-29T17:52:44.704Z,102155.34
2019-03-29T17:55:12.350Z,102157.86
2019-03-29T17:57:38.669Z,102156.47
2019-03-29T18:00:06.658Z,102154.70
2019-03-29T18:02:32.936Z,102162.78
2019-03-29T18:04:59.349Z,102163.19
2019-03-29T18:07:25.705Z,102156.59
2019-03-29T18:09:51.950Z,102152.63
2019-03-29T18:12:18.206Z,102161.53
2019-03-29T18:14:44.505Z,102164.36
2019-03-29T18:17:10.934Z,102167.20
2019-03-29T18:19:37.628Z,102172.91
2019-03-29T18:22:04.224Z,102164.33
2019-03-29T18:24:30.524Z,102160.35
2019-03-29T18:26:56.884Z,102160.80
2019-03-29T18:29:23.249Z,102168.58
2019-03-29T18:31:49.939Z,102170.16
2019-03-29T18:34:16.469Z,102167.84
2019-03-29T18:36:46.504Z,102165.20
2019-03-29T18:39:12.848Z,102173.86
2019-03-29T18:41:39.101Z,102166.23
2019-03-29T18:44:05.437Z,102168.75
2019-03-29T18:46:43.884Z,102168.41
2019-03-29T18:48:59.800Z,102175.33
2019-03-29T18:51:26.090Z,102178.84
2019-03-29T18:53:52.604Z,102172.06
2019-03-29T18:56:19.333Z,102167.12
2019-03-29T18:58:45.672Z,102166.63
2019-03-29T19:01:12.166Z,102171.13
2019-03-29T19:03:38.565Z,102175.41
2019-03-29T19:06:05.286Z,102177.15
2019-03-29T19:08:31.742Z,102171.81
2019-03-29T19:10:58.144Z,102177.52
2019-03-29T19:13:25.042Z,102172.73
2019-03-29T19:16:00.151Z,102174.65
2019-03-29T19:18:26.702Z,102180.02
2019-03-29T19:20:53.155Z,102179.11
2019-03-29T19:23:19.611Z,102182.17
2019-03-29T19:25:46.300Z,102181.34
2019-03-29T19:28:12.596Z,102182.20
2019-03-29T19:30:38.980Z,102181.91
2019-03-29T19:33:05.880Z,102177.00
2019-03-29T19:35:32.318Z,102170.23
2019-03-29T19:37:59.275Z,102172.45
2019-03-29T19:40:25.839Z,102174.02
2019-03-29T19:42:52.408Z,102172.20
2019-03-29T19:45:19.461Z,102175.82
2019-03-29T19:47:53.939Z,102176.94
2019-03-29T19:50:21.311Z,102166.41
2019-03-29T19:52:49.983Z,102172.52
2019-03-29T19:55:16.749Z,102169.84
2019-03-29T19:57:46.367Z,102172.21
2019-03-29T20:00:15.065Z,102173.25
2019-03-29T20:02:41.735Z,102166.33
2019-03-29T20:05:13.841Z,102170.17
2019-03-29T20:07:40.690Z,102163.36
2019-03-29T20:10:08.333Z,102164.88
2019-03-29T20:12:34.923Z,102170.11
2019-03-29T20:15:01.763Z,102166.33
2019-03-29T20:17:28.360Z,102166.88
2019-03-29T20:19:55.039Z,102165.69
2019-03-29T20:22:21.635Z,102163.63
2019-03-29T20:24:48.482Z,102166.88
2019-03-29T20:27:15.150Z,102162.31
2019-03-29T20:29:41.729Z,102158.09
2019-03-29T20:32:08.322Z,102161.77
2019-03-29T20:34:34.898Z,102159.17
2019-03-29T20:37:01.820Z,102155.85
2019-03-29T20:39:28.550Z,102160.06
2019-03-29T20:41:55.029Z,102160.38
2019-03-29T20:44:21.484Z,102153.95
2019-03-29T20:46:51.020Z,102150.44
2019-03-29T20:49:17.547Z,102153.91
2019-03-29T20:51:43.917Z,102154.77
2019-03-29T20:54:10.433Z,102149.41
2019-03-29T20:56:36.801Z,102147.59
2019-03-29T20:59:03.603Z,102147.22
2019-03-29T21:01:30.069Z,102152.05
2019-03-29T21:03:56.405Z,102149.81
2019-03-29T21:06:22.782Z,102151.38
2019-03-29T21:08:49.548Z,102149.55
2019-03-29T21:11:17.844Z,102152.81
2019-03-29T21:13:44.162Z,102148.55
2019-03-29T21:16:10.970Z,102148.41
2019-03-29T21:18:37.636Z,102141.84
2019-03-29T21:21:03.995Z,102147.72
2019-03-29T21:23:32.946Z,102148.28
2019-03-29T21:26:01.464Z,102140.98
2019-03-29T21:28:40.043Z,102142.73
2019-03-29T21:31:06.418Z,102136.45
2019-03-29T21:33:32.697Z,102143.05
2019-03-29T21:35:58.979Z,102141.84
2019-03-29T21:38:25.307Z,102140.98
2019-03-29T21:40:51.540Z,102137.77
2019-03-29T21:43:17.780Z,102131.70
2019-03-29T21:45:50.542Z,102126.70
2019-03-29T21:48:28.610Z,102131.91
2019-03-29T21:50:46.197Z,102132.61
2019-03-29T21:53:12.604Z,102129.47
2019-03-29T21:55:39.250Z,102122.93
2019-03-29T21:58:05.551Z,102129.20
2019-03-29T22:00:32.142Z,102130.92
2019-03-29T22:02:59.960Z,102130.94
2019-03-29T22:05:26.315Z,102134.38
2019-03-29T22:07:52.792Z,102131.27
2019-03-29T22:10:19.384Z,102124.36
2019-03-29T22:12:45.870Z,102132.98
2019-03-29T22:15:13.102Z,102132.14
2019-03-29T22:17:39.426Z,102132.16
2019-03-29T22:20:07.705Z,102125.75
2019-03-29T22:22:34.132Z,102124.53
2019-03-29T22:25:00.408Z,102124.54
2019-03-29T22:27:27.058Z,102124.73
2019-03-29T22:29:56.464Z,102126.62
2019-03-29T22:32:28.172Z,102120.56
2019-03-29T22:34:56.299Z,102123.85
2019-03-29T22:37:22.882Z,102121.25
2019-03-29T22:39:49.210Z,102115.55
2019-03-29T22:42:16.628Z,102110.00
2019-03-29T22:44:43.129Z,102111.53
2019-03-29T22:47:09.623Z,102114.52
2019-03-29T22:49:35.870Z,102105.88
2019-03-29T22:52:02.551Z,102105.16
2019-03-29T22:54:29.421Z,102106.22
2019-03-29T22:56:56.125Z,102101.39
2019-03-29T22:59:22.302Z,102108.48
2019-03-29T23:01:49.939Z,102107.90
2019-03-29T23:04:16.268Z,102103.09
2019-03-29T23:06:42.769Z,102097.38
2019-03-29T23:09:12.778Z,102098.07
2019-03-29T23:11:39.119Z,102092.68
2019-03-29T23:14:05.449Z,102090.98
2019-03-29T23:16:32.837Z,102095.97
2019-03-29T23:19:06.378Z,102091.63
2019-03-29T23:21:27.149Z,102083.03
2019-03-29T23:23:53.505Z,102085.37
2019-03-29T23:26:19.776Z,102071.24
2019-03-29T23:28:46.088Z,102071.09
2019-03-29T23:31:12.361Z,102079.52
2019-03-29T23:33:38.935Z,102083.11
2019-03-29T23:36:07.190Z,102072.41
2019-03-29T23:38:34.881Z,102061.95
2019-03-29T23:41:01.555Z,102069.78
2019-03-29T23:43:28.683Z,102057.91
2019-03-29T23:45:54.945Z,102064.94
2019-03-29T23:48:21.216Z,102055.86
2019-03-29T23:50:47.771Z,102058.06
2019-03-29T23:53:14.078Z,102050.16
2019-03-29T23:55:40.383Z,102047.01
2019-03-29T23:58:06.644Z,102053.02
